sensor_id;sensor_type;location;lat;lon;timestamp;temperature;humidity
39503;DHT22;26970;49.900;10.774;2023-02-01T00:01:49;3.30;99.90
39503;DHT22;26970;49.900;10.774;2023-02-01T00:04:14;3.30;99.90
39503;DHT22;26970;49.900;10.774;2023-02-01T00:06:40;3.30;99.90
39503;DHT22;26970;49.900;10.774;2023-02-01T00:09:06;3.30;99.90
39503;DHT22;26970;49.900;10.774;2023-02-01T00:11:31;3.30;99.90
39503;DHT22;26970;49.900;10.774;2023-02-01T00:13:57;3.30;99.90
39503;DHT22;26970;49.900;10.774;2023-02-01T00:16:25;3.40;99.90
39503;DHT22;26970;49.900;10.774;2023-02-01T00:18:56;3.30;99.90
39503;DHT22;26970;49.900;10.774;2023-02-01T00:21:22;3.30;99.90
39503;DHT22;26970;49.900;10.774;2023-02-01T00:23:48;3.40;99.90
39503;DHT22;26970;49.900;10.774;2023-02-01T00:26:31;3.40;99.90
39503;DHT22;26970;49.900;10.774;2023-02-01T00:28:57;3.40;99.90
39503;DHT22;26970;49.900;10.774;2023-02-01T00:31:22;3.40;99.90
39503;DHT22;26970;49.900;10.774;2023-02-01T00:33:48;3.50;99.90
39503;DHT22;26970;49.900;10.774;2023-02-01T00:36:14;3.40;99.90
39503;DHT22;26970;49.900;10.774;2023-02-01T00:38:39;3.40;99.90
39503;DHT22;26970;49.900;10.774;2023-02-01T00:41:11;3.40;99.90
39503;DHT22;26970;49.900;10.774;2023-02-01T00:43:37;3.40;99.90
39503;DHT22;26970;49.900;10.774;2023-02-01T00:46:03;3.50;99.90
39503;DHT22;26970;49.900;10.774;2023-02-01T00:48:30;3.50;99.90
39503;DHT22;26970;49.900;10.774;2023-02-01T00:50:59;3.40;99.90
39503;DHT22;26970;49.900;10.774;2023-02-01T00:53:25;3.50;99.90
39503;DHT22;26970;49.900;10.774;2023-02-01T00:55:51;3.50;99.90
39503;DHT22;26970;49.900;10.774;2023-02-01T00:58:16;3.50;99.90
39503;DHT22;26970;49.900;10.774;2023-02-01T01:00:42;3.50;99.90
39503;DHT22;26970;49.900;10.774;2023-02-01T01:03:08;3.50;99.90
39503;DHT22;26970;49.900;10.774;2023-02-01T01:05:51;3.50;99.90
39503;DHT22;26970;49.900;10.774;2023-02-01T01:08:16;3.50;99.90
39503;DHT22;26970;49.900;10.774;2023-02-01T01:10:43;3.50;99.90
39503;DHT22;26970;49.900;10.774;2023-02-01T01:13:09;3.50;99.90
39503;DHT22;26970;49.900;10.774;2023-02-01T01:15:40;3.50;99.90
39503;DHT22;26970;49.900;10.774;2023-02-01T01:18:07;3.50;99.90
39503;DHT22;26970;49.900;10.774;2023-02-01T01:20:37;3.50;99.90
39503;DHT22;26970;49.900;10.774;2023-02-01T01:23:04;3.60;99.90
39503;DHT22;26970;49.900;10.774;2023-02-01T01:25:30;3.50;99.90
39503;DHT22;26970;49.900;10.774;2023-02-01T01:27:55;3.50;99.90
39503;DHT22;26970;49.900;10.774;2023-02-01T01:30:21;3.60;99.90
39503;DHT22;26970;49.900;10.774;2023-02-01T01:32:47;3.60;99.90
39503;DHT22;26970;49.900;10.774;2023-02-01T01:35:13;3.60;99.90
39503;DHT22;26970;49.900;10.774;2023-02-01T01:37:38;3.60;99.90
39503;DHT22;26970;49.900;10.774;2023-02-01T01:40:05;3.60;99.90
39503;DHT22;26970;49.900;10.774;2023-02-01T01:42:37;3.50;99.90
39503;DHT22;26970;49.900;10.774;2023-02-01T01:45:07;3.50;99.90
39503;DHT22;26970;49.900;10.774;2023-02-01T01:47:41;3.60;99.90
39503;DHT22;26970;49.900;10.774;2023-02-01T01:50:10;3.60;99.90
39503;DHT22;26970;49.900;10.774;2023-02-01T01:52:37;3.60;99.90
39503;DHT22;26970;49.900;10.774;2023-02-01T01:55:04;3.50;99.90
39503;DHT22;26970;49.900;10.774;2023-02-01T01:57:36;3.60;99.90
39503;DHT22;26970;49.900;10.774;2023-02-01T02:00:13;3.60;99.90
39503;DHT22;26970;49.900;10.774;2023-02-01T02:02:40;3.60;99.90
39503;DHT22;26970;49.900;10.774;2023-02-01T02:05:07;3.50;99.90
39503;DHT22;26970;49.900;10.774;2023-02-01T02:07:48;3.50;99.90
39503;DHT22;26970;49.900;10.774;2023-02-01T02:10:26;3.50;99.90
39503;DHT22;26970;49.900;10.774;2023-02-01T02:13:14;3.50;99.90
39503;DHT22;26970;49.900;10.774;2023-02-01T02:15:45;3.40;99.90
39503;DHT22;26970;49.900;10.774;2023-02-01T02:18:28;3.50;99.90
39503;DHT22;26970;49.900;10.774;2023-02-01T02:30:00;3.50;99.90
39503;DHT22;26970;49.900;10.774;2023-02-01T02:36:25;3.50;99.90
39503;DHT22;26970;49.900;10.774;2023-02-01T02:38:44;3.50;99.90
39503;DHT22;26970;49.900;10.774;2023-02-01T02:41:19;3.40;99.90
39503;DHT22;26970;49.900;10.774;2023-02-01T02:44:28;3.50;99.90
39503;DHT22;26970;49.900;10.774;2023-02-01T02:50:23;3.40;99.90
39503;DHT22;26970;49.900;10.774;2023-02-01T02:53:16;3.40;99.90
39503;DHT22;26970;49.900;10.774;2023-02-01T02:56:03;3.40;99.90
39503;DHT22;26970;49.900;10.774;2023-02-01T02:58:50;3.40;99.90
39503;DHT22;26970;49.900;10.774;2023-02-01T03:01:36;3.40;99.90
39503;DHT22;26970;49.900;10.774;2023-02-01T03:04:21;3.40;99.90
39503;DHT22;26970;49.900;10.774;2023-02-01T03:06:48;3.40;99.90
39503;DHT22;26970;49.900;10.774;2023-02-01T03:09:21;3.50;99.90
39503;DHT22;26970;49.900;10.774;2023-02-01T03:11:50;3.40;99.90
39503;DHT22;26970;49.900;10.774;2023-02-01T03:14:37;3.40;99.90
39503;DHT22;26970;49.900;10.774;2023-02-01T03:17:11;3.40;99.90
39503;DHT22;26970;49.900;10.774;2023-02-01T03:19:43;3.40;99.90
39503;DHT22;26970;49.900;10.774;2023-02-01T03:22:20;3.40;99.90
39503;DHT22;26970;49.900;10.774;2023-02-01T03:25:01;3.40;99.90
39503;DHT22;26970;49.900;10.774;2023-02-01T03:27:32;3.50;99.90
39503;DHT22;26970;49.900;10.774;2023-02-01T03:30:19;3.50;99.90
39503;DHT22;26970;49.900;10.774;2023-02-01T03:32:48;3.50;99.90
39503;DHT22;26970;49.900;10.774;2023-02-01T03:41:53;3.50;99.90
39503;DHT22;26970;49.900;10.774;2023-02-01T03:44:29;3.50;99.90
39503;DHT22;26970;49.900;10.774;2023-02-01T03:47:07;3.40;99.90
39503;DHT22;26970;49.900;10.774;2023-02-01T03:52:05;3.50;99.90
39503;DHT22;26970;49.900;10.774;2023-02-01T03:54:32;3.50;99.90
39503;DHT22;26970;49.900;10.774;2023-02-01T03:57:01;3.50;99.90
39503;DHT22;26970;49.900;10.774;2023-02-01T03:59:28;3.50;99.90
39503;DHT22;26970;49.900;10.774;2023-02-01T04:01:53;3.50;99.90
39503;DHT22;26970;49.900;10.774;2023-02-01T04:04:19;3.50;99.90
39503;DHT22;26970;49.900;10.774;2023-02-01T04:06:49;3.50;99.90
39503;DHT22;26970;49.900;10.774;2023-02-01T04:09:15;3.50;99.90
39503;DHT22;26970;49.900;10.774;2023-02-01T04:11:40;3.60;99.90
39503;DHT22;26970;49.900;10.774;2023-02-01T04:14:06;3.50;99.90
39503;DHT22;26970;49.900;10.774;2023-02-01T04:16:32;4.10;99.90
39503;DHT22;26970;49.900;10.774;2023-02-01T04:18:59;3.50;99.90
39503;DHT22;26970;49.900;10.774;2023-02-01T04:21:28;3.50;99.90
39503;DHT22;26970;49.900;10.774;2023-02-01T04:23:54;3.50;99.90
39503;DHT22;26970;49.900;10.774;2023-02-01T04:26:20;3.50;99.90
39503;DHT22;26970;49.900;10.774;2023-02-01T04:28:46;3.50;99.90
39503;DHT22;26970;49.900;10.774;2023-02-01T04:31:16;3.50;99.90
39503;DHT22;26970;49.900;10.774;2023-02-01T04:33:42;3.40;99.90
39503;DHT22;26970;49.900;10.774;2023-02-01T04:36:08;3.40;99.90
39503;DHT22;26970;49.900;10.774;2023-02-01T04:38:34;3.40;99.90
39503;DHT22;26970;49.900;10.774;2023-02-01T04:40:59;3.40;99.90
39503;DHT22;26970;49.900;10.774;2023-02-01T04:43:25;3.40;99.90
39503;DHT22;26970;49.900;10.774;2023-02-01T04:45:52;3.40;99.90
39503;DHT22;26970;49.900;10.774;2023-02-01T04:48:18;3.30;99.90
39503;DHT22;26970;49.900;10.774;2023-02-01T04:50:46;3.30;99.90
39503;DHT22;26970;49.900;10.774;2023-02-01T04:53:16;3.40;99.90
39503;DHT22;26970;49.900;10.774;2023-02-01T04:55:42;3.30;99.90
39503;DHT22;26970;49.900;10.774;2023-02-01T04:58:08;3.40;99.90
39503;DHT22;26970;49.900;10.774;2023-02-01T05:00:34;3.30;99.90
39503;DHT22;26970;49.900;10.774;2023-02-01T05:02:59;3.40;99.90
39503;DHT22;26970;49.900;10.774;2023-02-01T05:05:26;3.30;99.90
39503;DHT22;26970;49.900;10.774;2023-02-01T05:07:51;3.30;99.90
39503;DHT22;26970;49.900;10.774;2023-02-01T05:10:17;3.30;99.90
39503;DHT22;26970;49.900;10.774;2023-02-01T05:12:44;3.30;99.90
39503;DHT22;26970;49.900;10.774;2023-02-01T05:15:29;3.30;99.90
39503;DHT22;26970;49.900;10.774;2023-02-01T05:17:54;3.30;99.90
39503;DHT22;26970;49.900;10.774;2023-02-01T05:20:20;3.20;99.90
39503;DHT22;26970;49.900;10.774;2023-02-01T05:22:45;3.20;99.90
39503;DHT22;26970;49.900;10.774;2023-02-01T05:25:11;3.30;99.90
39503;DHT22;26970;49.900;10.774;2023-02-01T05:27:36;3.20;99.90
39503;DHT22;26970;49.900;10.774;2023-02-01T05:30:04;3.20;99.90
39503;DHT22;26970;49.900;10.774;2023-02-01T05:32:30;3.10;99.90
39503;DHT22;26970;49.900;10.774;2023-02-01T05:34:56;3.10;99.90
39503;DHT22;26970;49.900;10.774;2023-02-01T05:37:22;3.10;99.90
39503;DHT22;26970;49.900;10.774;2023-02-01T05:39:47;3.20;99.90
39503;DHT22;26970;49.900;10.774;2023-02-01T05:42:13;3.20;99.90
39503;DHT22;26970;49.900;10.774;2023-02-01T05:44:38;3.20;99.90
39503;DHT22;26970;49.900;10.774;2023-02-01T05:47:04;3.20;99.90
39503;DHT22;26970;49.900;10.774;2023-02-01T05:49:30;3.20;99.90
39503;DHT22;26970;49.900;10.774;2023-02-01T05:51:55;3.10;99.90
39503;DHT22;26970;49.900;10.774;2023-02-01T05:54:36;3.20;99.90
39503;DHT22;26970;49.900;10.774;2023-02-01T05:57:16;3.10;99.90
39503;DHT22;26970;49.900;10.774;2023-02-01T05:59:41;3.10;99.90
39503;DHT22;26970;49.900;10.774;2023-02-01T06:02:08;3.20;99.90
39503;DHT22;26970;49.900;10.774;2023-02-01T06:04:35;3.10;99.90
39503;DHT22;26970;49.900;10.774;2023-02-01T06:07:01;3.10;99.90
39503;DHT22;26970;49.900;10.774;2023-02-01T06:09:26;3.10;99.90
39503;DHT22;26970;49.900;10.774;2023-02-01T06:11:53;3.10;99.90
39503;DHT22;26970;49.900;10.774;2023-02-01T06:14:19;3.10;99.90
39503;DHT22;26970;49.900;10.774;2023-02-01T06:16:45;3.10;99.90
39503;DHT22;26970;49.900;10.774;2023-02-01T06:19:12;3.20;99.90
39503;DHT22;26970;49.900;10.774;2023-02-01T06:21:37;3.20;99.90
39503;DHT22;26970;49.900;10.774;2023-02-01T06:24:03;3.20;99.90
39503;DHT22;26970;49.900;10.774;2023-02-01T06:26:29;3.20;99.90
39503;DHT22;26970;49.900;10.774;2023-02-01T06:28:55;3.20;99.90
39503;DHT22;26970;49.900;10.774;2023-02-01T06:31:21;3.20;99.90
39503;DHT22;26970;49.900;10.774;2023-02-01T06:33:46;3.20;99.90
39503;DHT22;26970;49.900;10.774;2023-02-01T06:36:12;3.10;99.90
39503;DHT22;26970;49.900;10.774;2023-02-01T06:38:38;3.20;99.90
39503;DHT22;26970;49.900;10.774;2023-02-01T06:41:05;3.10;99.90
39503;DHT22;26970;49.900;10.774;2023-02-01T06:43:30;3.00;99.90
39503;DHT22;26970;49.900;10.774;2023-02-01T06:46:09;3.00;99.90
39503;DHT22;26970;49.900;10.774;2023-02-01T06:48:35;3.10;99.90
39503;DHT22;26970;49.900;10.774;2023-02-01T06:51:01;3.00;99.90
39503;DHT22;26970;49.900;10.774;2023-02-01T06:53:27;3.10;99.90
39503;DHT22;26970;49.900;10.774;2023-02-01T06:55:54;3.10;99.90
39503;DHT22;26970;49.900;10.774;2023-02-01T06:58:20;3.10;99.90
39503;DHT22;26970;49.900;10.774;2023-02-01T07:00:46;3.10;99.90
39503;DHT22;26970;49.900;10.774;2023-02-01T07:03:11;3.10;99.90
39503;DHT22;26970;49.900;10.774;2023-02-01T07:05:37;3.10;99.90
39503;DHT22;26970;49.900;10.774;2023-02-01T07:08:03;3.00;99.90
39503;DHT22;26970;49.900;10.774;2023-02-01T07:10:28;3.10;99.90
39503;DHT22;26970;49.900;10.774;2023-02-01T07:12:59;3.10;99.90
39503;DHT22;26970;49.900;10.774;2023-02-01T07:15:25;3.20;99.90
39503;DHT22;26970;49.900;10.774;2023-02-01T07:17:50;3.20;99.90
39503;DHT22;26970;49.900;10.774;2023-02-01T07:20:16;3.20;99.90
39503;DHT22;26970;49.900;10.774;2023-02-01T07:22:42;3.20;99.90
39503;DHT22;26970;49.900;10.774;2023-02-01T07:25:07;3.20;99.90
39503;DHT22;26970;49.900;10.774;2023-02-01T07:27:34;3.20;99.90
39503;DHT22;26970;49.900;10.774;2023-02-01T07:30:00;3.20;99.90
39503;DHT22;26970;49.900;10.774;2023-02-01T07:32:28;3.20;99.90
39503;DHT22;26970;49.900;10.774;2023-02-01T07:34:54;3.30;99.90
39503;DHT22;26970;49.900;10.774;2023-02-01T07:37:19;3.30;99.90
39503;DHT22;26970;49.900;10.774;2023-02-01T07:39:45;3.40;99.90
39503;DHT22;26970;49.900;10.774;2023-02-01T07:42:10;3.30;99.90
39503;DHT22;26970;49.900;10.774;2023-02-01T07:44:36;3.30;99.90
39503;DHT22;26970;49.900;10.774;2023-02-01T07:47:02;3.30;99.90
39503;DHT22;26970;49.900;10.774;2023-02-01T07:49:28;3.40;99.90
39503;DHT22;26970;49.900;10.774;2023-02-01T07:51:53;3.40;99.90
39503;DHT22;26970;49.900;10.774;2023-02-01T07:54:19;3.40;99.90
39503;DHT22;26970;49.900;10.774;2023-02-01T07:56:44;3.40;99.90
39503;DHT22;26970;49.900;10.774;2023-02-01T07:59:10;3.40;99.90
39503;DHT22;26970;49.900;10.774;2023-02-01T08:01:37;3.40;99.90
39503;DHT22;26970;49.900;10.774;2023-02-01T08:04:03;3.40;99.90
39503;DHT22;26970;49.900;10.774;2023-02-01T08:06:31;3.50;99.90
39503;DHT22;26970;49.900;10.774;2023-02-01T08:08:57;3.60;99.90
39503;DHT22;26970;49.900;10.774;2023-02-01T08:11:25;3.60;99.90
39503;DHT22;26970;49.900;10.774;2023-02-01T08:13:51;3.70;99.90
39503;DHT22;26970;49.900;10.774;2023-02-01T08:16:29;3.80;99.90
39503;DHT22;26970;49.900;10.774;2023-02-01T08:19:08;3.80;99.90
39503;DHT22;26970;49.900;10.774;2023-02-01T08:21:34;3.90;99.90
39503;DHT22;26970;49.900;10.774;2023-02-01T08:24:04;4.00;99.90
39503;DHT22;26970;49.900;10.774;2023-02-01T08:26:30;4.10;99.90
39503;DHT22;26970;49.900;10.774;2023-02-01T08:28:59;4.10;99.90
39503;DHT22;26970;49.900;10.774;2023-02-01T08:31:26;4.10;99.90
39503;DHT22;26970;49.900;10.774;2023-02-01T08:33:58;4.20;99.90
39503;DHT22;26970;49.900;10.774;2023-02-01T08:36:26;4.30;99.90
39503;DHT22;26970;49.900;10.774;2023-02-01T08:38:52;4.20;99.90
39503;DHT22;26970;49.900;10.774;2023-02-01T08:41:20;4.30;99.90
39503;DHT22;26970;49.900;10.774;2023-02-01T08:43:47;4.30;99.90
39503;DHT22;26970;49.900;10.774;2023-02-01T08:46:13;4.40;99.90
39503;DHT22;26970;49.900;10.774;2023-02-01T08:48:39;4.40;99.90
39503;DHT22;26970;49.900;10.774;2023-02-01T08:51:07;4.40;99.90
39503;DHT22;26970;49.900;10.774;2023-02-01T08:53:34;4.40;99.90
39503;DHT22;26970;49.900;10.774;2023-02-01T08:56:01;4.50;99.90
39503;DHT22;26970;49.900;10.774;2023-02-01T08:58:27;4.60;99.90
39503;DHT22;26970;49.900;10.774;2023-02-01T09:00:52;4.60;99.90
39503;DHT22;26970;49.900;10.774;2023-02-01T09:03:18;4.70;99.90
39503;DHT22;26970;49.900;10.774;2023-02-01T09:05:44;4.80;99.90
39503;DHT22;26970;49.900;10.774;2023-02-01T09:08:11;5.00;99.90
39503;DHT22;26970;49.900;10.774;2023-02-01T09:10:40;5.10;99.90
39503;DHT22;26970;49.900;10.774;2023-02-01T09:13:06;5.00;99.90
39503;DHT22;26970;49.900;10.774;2023-02-01T09:15:33;5.00;99.90
39503;DHT22;26970;49.900;10.774;2023-02-01T09:17:59;4.90;99.90
39503;DHT22;26970;49.900;10.774;2023-02-01T09:20:24;4.90;99.90
39503;DHT22;26970;49.900;10.774;2023-02-01T09:22:55;4.80;99.90
39503;DHT22;26970;49.900;10.774;2023-02-01T09:25:21;4.80;99.90
39503;DHT22;26970;49.900;10.774;2023-02-01T09:27:47;4.80;99.90
39503;DHT22;26970;49.900;10.774;2023-02-01T09:30:12;4.80;99.90
39503;DHT22;26970;49.900;10.774;2023-02-01T09:32:38;4.80;99.90
39503;DHT22;26970;49.900;10.774;2023-02-01T09:35:18;4.80;99.90
39503;DHT22;26970;49.900;10.774;2023-02-01T09:37:57;4.80;99.90
39503;DHT22;26970;49.900;10.774;2023-02-01T09:40:27;4.80;99.90
39503;DHT22;26970;49.900;10.774;2023-02-01T09:42:59;4.70;99.90
39503;DHT22;26970;49.900;10.774;2023-02-01T09:48:45;4.70;99.90
39503;DHT22;26970;49.900;10.774;2023-02-01T09:51:27;4.60;99.90
39503;DHT22;26970;49.900;10.774;2023-02-01T09:56:56;4.50;99.90
39503;DHT22;26970;49.900;10.774;2023-02-01T09:59:46;4.60;99.90
39503;DHT22;26970;49.900;10.774;2023-02-01T10:02:26;4.50;99.90
39503;DHT22;26970;49.900;10.774;2023-02-01T10:04:55;4.50;99.90
39503;DHT22;26970;49.900;10.774;2023-02-01T10:13:01;4.50;99.90
39503;DHT22;26970;49.900;10.774;2023-02-01T10:15:30;4.50;99.90
39503;DHT22;26970;49.900;10.774;2023-02-01T10:18:15;4.40;99.90
39503;DHT22;26970;49.900;10.774;2023-02-01T10:21:01;4.40;99.90
39503;DHT22;26970;49.900;10.774;2023-02-01T10:26:32;4.40;99.90
39503;DHT22;26970;49.900;10.774;2023-02-01T10:29:01;4.40;99.90
39503;DHT22;26970;49.900;10.774;2023-02-01T10:31:35;4.40;99.90
39503;DHT22;26970;49.900;10.774;2023-02-01T10:34:12;4.40;99.90
39503;DHT22;26970;49.900;10.774;2023-02-01T10:36:50;4.40;99.90
39503;DHT22;26970;49.900;10.774;2023-02-01T10:39:17;4.40;99.90
39503;DHT22;26970;49.900;10.774;2023-02-01T10:41:43;4.30;99.90
39503;DHT22;26970;49.900;10.774;2023-02-01T10:44:14;4.30;99.90
39503;DHT22;26970;49.900;10.774;2023-02-01T10:46:40;4.30;99.90
39503;DHT22;26970;49.900;10.774;2023-02-01T10:49:15;4.30;99.90
39503;DHT22;26970;49.900;10.774;2023-02-01T10:51:51;4.30;99.90
39503;DHT22;26970;49.900;10.774;2023-02-01T10:54:31;4.40;99.90
39503;DHT22;26970;49.900;10.774;2023-02-01T10:56:57;4.40;99.90
39503;DHT22;26970;49.900;10.774;2023-02-01T10:59:29;4.40;99.90
39503;DHT22;26970;49.900;10.774;2023-02-01T11:02:05;4.40;99.90
39503;DHT22;26970;49.900;10.774;2023-02-01T11:04:39;4.30;99.90
39503;DHT22;26970;49.900;10.774;2023-02-01T11:07:22;4.40;99.90
39503;DHT22;26970;49.900;10.774;2023-02-01T11:09:53;4.40;99.90
39503;DHT22;26970;49.900;10.774;2023-02-01T11:12:53;4.40;99.90
39503;DHT22;26970;49.900;10.774;2023-02-01T11:15:24;4.50;99.90
39503;DHT22;26970;49.900;10.774;2023-02-01T11:17:52;4.50;99.90
39503;DHT22;26970;49.900;10.774;2023-02-01T11:22:57;4.50;99.90
39503;DHT22;26970;49.900;10.774;2023-02-01T11:25:24;4.50;99.90
39503;DHT22;26970;49.900;10.774;2023-02-01T11:28:04;4.60;99.90
39503;DHT22;26970;49.900;10.774;2023-02-01T11:30:56;4.70;99.90
39503;DHT22;26970;49.900;10.774;2023-02-01T11:33:47;4.70;99.90
39503;DHT22;26970;49.900;10.774;2023-02-01T11:36:32;4.70;99.90
39503;DHT22;26970;49.900;10.774;2023-02-01T11:45:34;4.80;99.90
39503;DHT22;26970;49.900;10.774;2023-02-01T11:48:18;4.80;99.90
39503;DHT22;26970;49.900;10.774;2023-02-01T11:51:42;4.90;99.90
39503;DHT22;26970;49.900;10.774;2023-02-01T11:57:38;4.90;99.90
39503;DHT22;26970;49.900;10.774;2023-02-01T12:03:04;4.90;99.90
39503;DHT22;26970;49.900;10.774;2023-02-01T12:17:40;4.80;99.90
39503;DHT22;26970;49.900;10.774;2023-02-01T12:25:44;4.70;99.90
39503;DHT22;26970;49.900;10.774;2023-02-01T12:30:53;4.80;99.90
39503;DHT22;26970;49.900;10.774;2023-02-01T12:46:41;4.90;99.90
39503;DHT22;26970;49.900;10.774;2023-02-01T12:49:15;4.80;99.90
39503;DHT22;26970;49.900;10.774;2023-02-01T12:51:45;4.90;99.90
39503;DHT22;26970;49.900;10.774;2023-02-01T12:54:31;4.90;99.90
39503;DHT22;26970;49.900;10.774;2023-02-01T12:57:11;4.90;99.90
39503;DHT22;26970;49.900;10.774;2023-02-01T13:00:05;4.80;99.90
39503;DHT22;26970;49.900;10.774;2023-02-01T13:05:23;5.00;99.90
39503;DHT22;26970;49.900;10.774;2023-02-01T13:07:53;5.00;99.90
39503;DHT22;26970;49.900;10.774;2023-02-01T13:10:42;5.00;99.90
39503;DHT22;26970;49.900;10.774;2023-02-01T13:15:47;5.10;99.90
39503;DHT22;26970;49.900;10.774;2023-02-01T13:18:20;5.10;99.90
39503;DHT22;26970;49.900;10.774;2023-02-01T13:20:58;5.10;99.90
39503;DHT22;26970;49.900;10.774;2023-02-01T13:23:30;5.10;99.90
39503;DHT22;26970;49.900;10.774;2023-02-01T13:25:58;5.10;99.90
39503;DHT22;26970;49.900;10.774;2023-02-01T13:28:32;5.10;99.90
39503;DHT22;26970;49.900;10.774;2023-02-01T13:31:34;5.10;99.90
39503;DHT22;26970;49.900;10.774;2023-02-01T13:34:28;5.10;99.90
39503;DHT22;26970;49.900;10.774;2023-02-01T13:39:47;5.10;99.90
39503;DHT22;26970;49.900;10.774;2023-02-01T13:42:46;5.10;99.90
39503;DHT22;26970;49.900;10.774;2023-02-01T13:45:26;5.10;99.90
39503;DHT22;26970;49.900;10.774;2023-02-01T13:47:56;5.10;99.90
39503;DHT22;26970;49.900;10.774;2023-02-01T13:50:34;5.10;99.90
39503;DHT22;26970;49.900;10.774;2023-02-01T13:53:17;5.10;99.90
39503;DHT22;26970;49.900;10.774;2023-02-01T13:55:45;5.10;99.90
39503;DHT22;26970;49.900;10.774;2023-02-01T13:58:18;5.20;99.90
39503;DHT22;26970;49.900;10.774;2023-02-01T14:01:37;5.20;99.90
39503;DHT22;26970;49.900;10.774;2023-02-01T14:03:52;5.20;99.90
39503;DHT22;26970;49.900;10.774;2023-02-01T14:09:14;5.10;99.90
39503;DHT22;26970;49.900;10.774;2023-02-01T14:11:45;5.10;99.90
39503;DHT22;26970;49.900;10.774;2023-02-01T14:16:44;5.10;99.90
39503;DHT22;26970;49.900;10.774;2023-02-01T14:19:33;5.00;99.90
39503;DHT22;26970;49.900;10.774;2023-02-01T14:24:50;5.00;99.90
39503;DHT22;26970;49.900;10.774;2023-02-01T14:27:30;5.00;99.90
39503;DHT22;26970;49.900;10.774;2023-02-01T14:30:04;5.00;99.90
39503;DHT22;26970;49.900;10.774;2023-02-01T14:32:33;5.00;99.90
39503;DHT22;26970;49.900;10.774;2023-02-01T14:35:02;5.00;99.90
39503;DHT22;26970;49.900;10.774;2023-02-01T14:37:36;5.00;99.90
39503;DHT22;26970;49.900;10.774;2023-02-01T14:40:17;4.90;99.90
39503;DHT22;26970;49.900;10.774;2023-02-01T14:42:45;4.90;99.90
39503;DHT22;26970;49.900;10.774;2023-02-01T14:50:29;4.90;99.90
39503;DHT22;26970;49.900;10.774;2023-02-01T14:55:39;4.90;99.90
39503;DHT22;26970;49.900;10.774;2023-02-01T15:01:13;4.90;99.90
39503;DHT22;26970;49.900;10.774;2023-02-01T15:03:43;4.90;99.90
39503;DHT22;26970;49.900;10.774;2023-02-01T15:06:39;4.90;99.90
39503;DHT22;26970;49.900;10.774;2023-02-01T15:09:13;4.80;99.90
39503;DHT22;26970;49.900;10.774;2023-02-01T15:14:23;4.80;99.90
39503;DHT22;26970;49.900;10.774;2023-02-01T15:16:49;4.80;99.90
39503;DHT22;26970;49.900;10.774;2023-02-01T15:19:22;4.80;99.90
39503;DHT22;26970;49.900;10.774;2023-02-01T15:21:51;4.80;99.90
39503;DHT22;26970;49.900;10.774;2023-02-01T15:24:24;4.80;99.90
39503;DHT22;26970;49.900;10.774;2023-02-01T15:26:52;4.80;99.90
39503;DHT22;26970;49.900;10.774;2023-02-01T15:29:19;4.80;99.90
39503;DHT22;26970;49.900;10.774;2023-02-01T15:31:48;4.80;99.90
39503;DHT22;26970;49.900;10.774;2023-02-01T15:34:14;4.80;99.90
39503;DHT22;26970;49.900;10.774;2023-02-01T15:36:41;4.80;99.90
39503;DHT22;26970;49.900;10.774;2023-02-01T15:39:22;4.80;99.90
39503;DHT22;26970;49.900;10.774;2023-02-01T15:42:11;4.80;99.90
39503;DHT22;26970;49.900;10.774;2023-02-01T15:44:44;4.80;99.90
39503;DHT22;26970;49.900;10.774;2023-02-01T15:47:20;4.80;99.90
39503;DHT22;26970;49.900;10.774;2023-02-01T15:49:52;4.80;99.90
39503;DHT22;26970;49.900;10.774;2023-02-01T15:54:59;4.80;99.90
39503;DHT22;26970;49.900;10.774;2023-02-01T15:57:29;4.80;99.90
39503;DHT22;26970;49.900;10.774;2023-02-01T16:00:22;4.80;99.90
39503;DHT22;26970;49.900;10.774;2023-02-01T16:02:57;4.80;99.90
39503;DHT22;26970;49.900;10.774;2023-02-01T16:08:10;4.80;99.90
39503;DHT22;26970;49.900;10.774;2023-02-01T16:10:45;4.80;99.90
39503;DHT22;26970;49.900;10.774;2023-02-01T16:13:20;4.80;99.90
39503;DHT22;26970;49.900;10.774;2023-02-01T16:16:01;4.80;99.90
39503;DHT22;26970;49.900;10.774;2023-02-01T16:18:37;4.80;99.90
39503;DHT22;26970;49.900;10.774;2023-02-01T16:21:03;4.80;99.90
39503;DHT22;26970;49.900;10.774;2023-02-01T16:23:29;4.80;99.90
39503;DHT22;26970;49.900;10.774;2023-02-01T16:25:55;4.70;99.90
39503;DHT22;26970;49.900;10.774;2023-02-01T16:28:27;4.80;99.90
39503;DHT22;26970;49.900;10.774;2023-02-01T16:31:03;4.70;99.90
39503;DHT22;26970;49.900;10.774;2023-02-01T16:33:29;4.80;99.90
39503;DHT22;26970;49.900;10.774;2023-02-01T16:35:56;4.80;99.90
39503;DHT22;26970;49.900;10.774;2023-02-01T16:38:26;4.80;99.90
39503;DHT22;26970;49.900;10.774;2023-02-01T16:40:51;4.80;99.90
39503;DHT22;26970;49.900;10.774;2023-02-01T16:43:32;4.80;99.90
39503;DHT22;26970;49.900;10.774;2023-02-01T16:46:18;4.80;99.90
39503;DHT22;26970;49.900;10.774;2023-02-01T16:48:50;4.80;99.90
39503;DHT22;26970;49.900;10.774;2023-02-01T16:51:17;4.70;99.90
39503;DHT22;26970;49.900;10.774;2023-02-01T16:53:44;4.80;99.90
39503;DHT22;26970;49.900;10.774;2023-02-01T16:56:16;4.70;99.90
39503;DHT22;26970;49.900;10.774;2023-02-01T16:58:43;4.70;99.90
39503;DHT22;26970;49.900;10.774;2023-02-01T17:01:10;4.70;99.90
39503;DHT22;26970;49.900;10.774;2023-02-01T17:03:36;4.60;99.90
39503;DHT22;26970;49.900;10.774;2023-02-01T17:06:02;4.60;99.90
39503;DHT22;26970;49.900;10.774;2023-02-01T17:08:31;4.70;99.90
39503;DHT22;26970;49.900;10.774;2023-02-01T17:10:58;4.70;99.90
39503;DHT22;26970;49.900;10.774;2023-02-01T17:13:24;4.60;99.90
39503;DHT22;26970;49.900;10.774;2023-02-01T17:15:57;4.60;99.90
39503;DHT22;26970;49.900;10.774;2023-02-01T17:18:23;4.60;99.90
39503;DHT22;26970;49.900;10.774;2023-02-01T17:20:50;4.60;99.90
39503;DHT22;26970;49.900;10.774;2023-02-01T17:23:18;4.50;99.90
39503;DHT22;26970;49.900;10.774;2023-02-01T17:25:44;4.50;99.90
39503;DHT22;26970;49.900;10.774;2023-02-01T17:28:15;4.50;99.90
39503;DHT22;26970;49.900;10.774;2023-02-01T17:30:48;4.50;99.90
39503;DHT22;26970;49.900;10.774;2023-02-01T17:33:29;4.50;99.90
39503;DHT22;26970;49.900;10.774;2023-02-01T17:35:55;4.50;99.90
39503;DHT22;26970;49.900;10.774;2023-02-01T17:38:21;4.50;99.90
39503;DHT22;26970;49.900;10.774;2023-02-01T17:40:47;4.30;99.90
39503;DHT22;26970;49.900;10.774;2023-02-01T17:43:24;4.30;99.90
39503;DHT22;26970;49.900;10.774;2023-02-01T17:46:20;4.20;99.90
39503;DHT22;26970;49.900;10.774;2023-02-01T17:48:54;4.20;99.90
39503;DHT22;26970;49.900;10.774;2023-02-01T17:51:26;4.20;99.90
39503;DHT22;26970;49.900;10.774;2023-02-01T17:53:53;4.30;99.90
39503;DHT22;26970;49.900;10.774;2023-02-01T17:56:21;4.30;99.90
39503;DHT22;26970;49.900;10.774;2023-02-01T17:58:47;4.40;99.90